Awendaw, South Carolina
Current Conditions -  °F | °C
As of 10:35 AM on Friday 28 Nov 2014 (Local Time) from KLRO Reporting Station
Clear Clear  
Wind Chill: 39°   Ceiling: Unl
Heat Index: 45°   Visibility: 10mi
Dew Point: 25°   Wind: 12mph
Humidity: 46%   Direction: 360°N
Pressure: 30.41"   Gusts: NA
Location:  33.04°N, 79.61°W
Report Text: KLRO 281535Z AUTO 36010KT 030V360 10SM CLR 07/M04 A3041 RMK AO2 PWINO PNO
Loading
Personal Weather Stations






























Interactive Weather Map New forecast layout! Learn more

10-Day Weather Forecast

Advertisements
Track Severe Weather on mobile